sensor_id;sensor_type;location;lat;lon;timestamp;P1;durP1;ratioP1;P2;durP2;ratioP2
69321;SDS011;67799;51.974;4.612;2023-02-14T00:02:04;13.55;;;6.03;;
69321;SDS011;67799;51.974;4.612;2023-02-14T00:04:30;12.18;;;6.55;;
69321;SDS011;67799;51.974;4.612;2023-02-14T00:06:56;12.17;;;6.23;;
69321;SDS011;67799;51.974;4.612;2023-02-14T00:09:22;16.42;;;6.68;;
69321;SDS011;67799;51.974;4.612;2023-02-14T00:11:49;10.02;;;6.38;;
69321;SDS011;67799;51.974;4.612;2023-02-14T00:14:15;7.83;;;5.37;;
69321;SDS011;67799;51.974;4.612;2023-02-14T00:17:00;12.02;;;7.05;;
69321;SDS011;67799;51.974;4.612;2023-02-14T00:19:26;11.85;;;5.68;;
69321;SDS011;67799;51.974;4.612;2023-02-14T00:21:52;16.43;;;6.40;;
69321;SDS011;67799;51.974;4.612;2023-02-14T00:24:19;12.57;;;7.43;;
69321;SDS011;67799;51.974;4.612;2023-02-14T00:26:47;12.07;;;7.00;;
69321;SDS011;67799;51.974;4.612;2023-02-14T00:29:15;23.90;;;8.10;;
69321;SDS011;67799;51.974;4.612;2023-02-14T00:31:43;9.77;;;5.63;;
69321;SDS011;67799;51.974;4.612;2023-02-14T00:34:09;10.40;;;6.40;;
69321;SDS011;67799;51.974;4.612;2023-02-14T00:36:36;10.88;;;7.15;;
69321;SDS011;67799;51.974;4.612;2023-02-14T00:39:03;10.77;;;5.70;;
69321;SDS011;67799;51.974;4.612;2023-02-14T00:41:29;8.57;;;5.75;;
69321;SDS011;67799;51.974;4.612;2023-02-14T00:43:56;15.73;;;7.22;;
69321;SDS011;67799;51.974;4.612;2023-02-14T00:46:22;9.50;;;5.63;;
69321;SDS011;67799;51.974;4.612;2023-02-14T00:48:49;11.93;;;6.18;;
69321;SDS011;67799;51.974;4.612;2023-02-14T00:51:15;10.82;;;5.45;;
69321;SDS011;67799;51.974;4.612;2023-02-14T00:53:42;9.40;;;5.93;;
69321;SDS011;67799;51.974;4.612;2023-02-14T00:56:10;9.98;;;5.82;;
69321;SDS011;67799;51.974;4.612;2023-02-14T00:58:36;11.68;;;5.90;;
69321;SDS011;67799;51.974;4.612;2023-02-14T01:01:02;9.82;;;5.63;;
69321;SDS011;67799;51.974;4.612;2023-02-14T01:03:28;8.43;;;4.70;;
69321;SDS011;67799;51.974;4.612;2023-02-14T01:05:55;7.93;;;5.32;;
69321;SDS011;67799;51.974;4.612;2023-02-14T01:08:21;12.02;;;6.50;;
69321;SDS011;67799;51.974;4.612;2023-02-14T01:10:48;10.00;;;5.47;;
69321;SDS011;67799;51.974;4.612;2023-02-14T01:13:14;11.48;;;5.45;;
69321;SDS011;67799;51.974;4.612;2023-02-14T01:15:42;10.77;;;5.68;;
69321;SDS011;67799;51.974;4.612;2023-02-14T01:18:09;14.97;;;6.07;;
69321;SDS011;67799;51.974;4.612;2023-02-14T01:20:35;15.75;;;5.85;;
69321;SDS011;67799;51.974;4.612;2023-02-14T01:23:01;9.25;;;5.90;;
69321;SDS011;67799;51.974;4.612;2023-02-14T01:25:27;8.37;;;4.33;;
69321;SDS011;67799;51.974;4.612;2023-02-14T01:27:53;9.43;;;5.93;;
69321;SDS011;67799;51.974;4.612;2023-02-14T01:30:19;11.45;;;5.40;;
69321;SDS011;67799;51.974;4.612;2023-02-14T01:32:45;9.02;;;5.90;;
69321;SDS011;67799;51.974;4.612;2023-02-14T01:35:12;12.27;;;5.23;;
69321;SDS011;67799;51.974;4.612;2023-02-14T01:37:38;9.40;;;5.13;;
69321;SDS011;67799;51.974;4.612;2023-02-14T01:40:05;9.73;;;5.05;;
69321;SDS011;67799;51.974;4.612;2023-02-14T01:42:41;8.77;;;4.23;;
69321;SDS011;67799;51.974;4.612;2023-02-14T01:45:13;12.10;;;6.55;;
69321;SDS011;67799;51.974;4.612;2023-02-14T01:47:48;7.53;;;4.88;;
69321;SDS011;67799;51.974;4.612;2023-02-14T01:50:39;8.60;;;6.03;;
69321;SDS011;67799;51.974;4.612;2023-02-14T01:53:08;7.30;;;3.97;;
69321;SDS011;67799;51.974;4.612;2023-02-14T01:55:41;7.97;;;4.72;;
69321;SDS011;67799;51.974;4.612;2023-02-14T01:58:12;9.57;;;5.82;;
69321;SDS011;67799;51.974;4.612;2023-02-14T02:00:41;8.00;;;4.80;;
69321;SDS011;67799;51.974;4.612;2023-02-14T02:03:33;8.93;;;4.85;;
69321;SDS011;67799;51.974;4.612;2023-02-14T02:06:14;14.35;;;6.15;;
69321;SDS011;67799;51.974;4.612;2023-02-14T02:08:51;12.70;;;4.73;;
69321;SDS011;67799;51.974;4.612;2023-02-14T02:11:33;10.60;;;5.95;;
69321;SDS011;67799;51.974;4.612;2023-02-14T02:13:59;9.25;;;5.60;;
69321;SDS011;67799;51.974;4.612;2023-02-14T02:16:41;9.47;;;5.20;;
69321;SDS011;67799;51.974;4.612;2023-02-14T02:25:42;9.37;;;5.07;;
69321;SDS011;67799;51.974;4.612;2023-02-14T02:31:36;8.65;;;4.85;;
69321;SDS011;67799;51.974;4.612;2023-02-14T02:40:02;9.52;;;5.45;;
69321;SDS011;67799;51.974;4.612;2023-02-14T02:42:38;9.40;;;5.30;;
69321;SDS011;67799;51.974;4.612;2023-02-14T02:45:22;9.00;;;5.33;;
69321;SDS011;67799;51.974;4.612;2023-02-14T02:47:57;8.45;;;5.70;;
69321;SDS011;67799;51.974;4.612;2023-02-14T02:50:39;7.63;;;4.50;;
69321;SDS011;67799;51.974;4.612;2023-02-14T02:53:28;11.10;;;5.17;;
69321;SDS011;67799;51.974;4.612;2023-02-14T02:59:02;7.97;;;4.70;;
69321;SDS011;67799;51.974;4.612;2023-02-14T03:01:35;8.98;;;5.43;;
69321;SDS011;67799;51.974;4.612;2023-02-14T03:04:06;8.50;;;5.37;;
69321;SDS011;67799;51.974;4.612;2023-02-14T03:06:54;8.40;;;5.15;;
69321;SDS011;67799;51.974;4.612;2023-02-14T03:12:09;6.43;;;3.83;;
69321;SDS011;67799;51.974;4.612;2023-02-14T03:14:49;8.73;;;4.85;;
69321;SDS011;67799;51.974;4.612;2023-02-14T03:23:31;6.55;;;3.92;;
69321;SDS011;67799;51.974;4.612;2023-02-14T03:26:10;5.90;;;4.03;;
69321;SDS011;67799;51.974;4.612;2023-02-14T03:28:51;6.32;;;4.28;;
69321;SDS011;67799;51.974;4.612;2023-02-14T03:31:34;9.27;;;4.63;;
69321;SDS011;67799;51.974;4.612;2023-02-14T03:34:23;8.63;;;4.57;;
69321;SDS011;67799;51.974;4.612;2023-02-14T03:42:43;9.02;;;4.07;;
69321;SDS011;67799;51.974;4.612;2023-02-14T03:45:23;7.10;;;4.80;;
69321;SDS011;67799;51.974;4.612;2023-02-14T03:48:11;6.40;;;3.93;;
69321;SDS011;67799;51.974;4.612;2023-02-14T03:50:41;9.77;;;4.18;;
69321;SDS011;67799;51.974;4.612;2023-02-14T03:53:10;7.53;;;4.95;;
69321;SDS011;67799;51.974;4.612;2023-02-14T03:55:53;8.75;;;4.75;;
69321;SDS011;67799;51.974;4.612;2023-02-14T03:58:30;7.30;;;3.37;;
69321;SDS011;67799;51.974;4.612;2023-02-14T04:01:00;8.95;;;4.68;;
69321;SDS011;67799;51.974;4.612;2023-02-14T04:03:31;13.38;;;5.80;;
69321;SDS011;67799;51.974;4.612;2023-02-14T04:05:59;6.17;;;4.17;;
69321;SDS011;67799;51.974;4.612;2023-02-14T04:08:26;6.03;;;3.67;;
69321;SDS011;67799;51.974;4.612;2023-02-14T04:10:54;5.03;;;3.38;;
69321;SDS011;67799;51.974;4.612;2023-02-14T04:13:23;5.57;;;3.80;;
69321;SDS011;67799;51.974;4.612;2023-02-14T04:15:48;10.13;;;4.32;;
69321;SDS011;67799;51.974;4.612;2023-02-14T04:18:14;8.10;;;4.47;;
69321;SDS011;67799;51.974;4.612;2023-02-14T04:21:00;8.13;;;5.17;;
69321;SDS011;67799;51.974;4.612;2023-02-14T04:23:26;4.47;;;3.35;;
69321;SDS011;67799;51.974;4.612;2023-02-14T04:25:51;4.57;;;3.20;;
69321;SDS011;67799;51.974;4.612;2023-02-14T04:28:17;6.00;;;3.27;;
69321;SDS011;67799;51.974;4.612;2023-02-14T04:30:43;5.13;;;3.38;;
69321;SDS011;67799;51.974;4.612;2023-02-14T04:33:09;8.13;;;4.03;;
69321;SDS011;67799;51.974;4.612;2023-02-14T04:35:35;8.43;;;4.67;;
69321;SDS011;67799;51.974;4.612;2023-02-14T04:38:02;6.78;;;4.15;;
69321;SDS011;67799;51.974;4.612;2023-02-14T04:40:29;4.82;;;3.13;;
69321;SDS011;67799;51.974;4.612;2023-02-14T04:42:56;8.80;;;4.63;;
69321;SDS011;67799;51.974;4.612;2023-02-14T04:45:22;4.55;;;4.10;;
69321;SDS011;67799;51.974;4.612;2023-02-14T04:47:48;9.38;;;5.13;;
69321;SDS011;67799;51.974;4.612;2023-02-14T04:50:14;6.60;;;4.53;;
69321;SDS011;67799;51.974;4.612;2023-02-14T04:52:40;5.28;;;3.83;;
69321;SDS011;67799;51.974;4.612;2023-02-14T04:55:07;8.30;;;5.13;;
69321;SDS011;67799;51.974;4.612;2023-02-14T04:57:33;7.13;;;5.18;;
69321;SDS011;67799;51.974;4.612;2023-02-14T04:59:59;4.87;;;3.87;;
69321;SDS011;67799;51.974;4.612;2023-02-14T05:02:25;13.10;;;4.70;;
69321;SDS011;67799;51.974;4.612;2023-02-14T05:04:51;11.17;;;5.33;;
69321;SDS011;67799;51.974;4.612;2023-02-14T05:07:17;7.03;;;3.97;;
69321;SDS011;67799;51.974;4.612;2023-02-14T05:09:43;9.05;;;5.20;;
69321;SDS011;67799;51.974;4.612;2023-02-14T05:12:08;9.23;;;4.97;;
69321;SDS011;67799;51.974;4.612;2023-02-14T05:14:34;7.93;;;3.92;;
69321;SDS011;67799;51.974;4.612;2023-02-14T05:17:00;6.60;;;3.42;;
69321;SDS011;67799;51.974;4.612;2023-02-14T05:19:26;10.03;;;5.00;;
69321;SDS011;67799;51.974;4.612;2023-02-14T05:21:52;6.38;;;4.38;;
69321;SDS011;67799;51.974;4.612;2023-02-14T05:24:18;8.95;;;4.60;;
69321;SDS011;67799;51.974;4.612;2023-02-14T05:26:44;7.20;;;4.17;;
69321;SDS011;67799;51.974;4.612;2023-02-14T05:29:10;9.90;;;4.63;;
69321;SDS011;67799;51.974;4.612;2023-02-14T05:31:36;8.32;;;4.03;;
69321;SDS011;67799;51.974;4.612;2023-02-14T05:34:02;7.07;;;3.87;;
69321;SDS011;67799;51.974;4.612;2023-02-14T05:36:28;8.07;;;4.05;;
69321;SDS011;67799;51.974;4.612;2023-02-14T05:38:53;8.13;;;3.78;;
69321;SDS011;67799;51.974;4.612;2023-02-14T05:41:19;10.47;;;4.67;;
69321;SDS011;67799;51.974;4.612;2023-02-14T05:43:45;6.25;;;3.58;;
69321;SDS011;67799;51.974;4.612;2023-02-14T05:46:11;6.55;;;2.97;;
69321;SDS011;67799;51.974;4.612;2023-02-14T05:48:37;8.43;;;4.60;;
69321;SDS011;67799;51.974;4.612;2023-02-14T05:51:07;8.02;;;4.18;;
69321;SDS011;67799;51.974;4.612;2023-02-14T05:53:34;6.07;;;4.68;;
69321;SDS011;67799;51.974;4.612;2023-02-14T05:56:01;6.57;;;3.07;;
69321;SDS011;67799;51.974;4.612;2023-02-14T05:58:27;6.70;;;3.65;;
69321;SDS011;67799;51.974;4.612;2023-02-14T06:00:55;6.20;;;3.75;;
69321;SDS011;67799;51.974;4.612;2023-02-14T06:03:21;7.13;;;3.70;;
69321;SDS011;67799;51.974;4.612;2023-02-14T06:05:47;9.30;;;4.20;;
69321;SDS011;67799;51.974;4.612;2023-02-14T06:08:13;6.00;;;3.90;;
69321;SDS011;67799;51.974;4.612;2023-02-14T06:10:39;4.53;;;3.33;;
69321;SDS011;67799;51.974;4.612;2023-02-14T06:13:05;5.68;;;3.90;;
69321;SDS011;67799;51.974;4.612;2023-02-14T06:15:34;5.40;;;3.80;;
69321;SDS011;67799;51.974;4.612;2023-02-14T06:18:00;5.97;;;3.53;;
69321;SDS011;67799;51.974;4.612;2023-02-14T06:20:27;8.87;;;3.30;;
69321;SDS011;67799;51.974;4.612;2023-02-14T06:22:54;8.43;;;3.97;;
69321;SDS011;67799;51.974;4.612;2023-02-14T06:25:20;5.72;;;4.20;;
69321;SDS011;67799;51.974;4.612;2023-02-14T06:27:47;3.00;;;2.60;;
69321;SDS011;67799;51.974;4.612;2023-02-14T06:30:13;4.65;;;3.67;;
69321;SDS011;67799;51.974;4.612;2023-02-14T06:32:40;7.22;;;3.75;;
69321;SDS011;67799;51.974;4.612;2023-02-14T06:35:06;7.83;;;4.73;;
69321;SDS011;67799;51.974;4.612;2023-02-14T06:37:32;7.65;;;3.90;;
69321;SDS011;67799;51.974;4.612;2023-02-14T06:39:58;10.95;;;5.00;;
69321;SDS011;67799;51.974;4.612;2023-02-14T06:42:24;7.70;;;5.78;;
69321;SDS011;67799;51.974;4.612;2023-02-14T06:44:50;5.83;;;4.43;;
69321;SDS011;67799;51.974;4.612;2023-02-14T06:47:16;9.15;;;4.28;;
69321;SDS011;67799;51.974;4.612;2023-02-14T06:49:42;7.37;;;4.50;;
69321;SDS011;67799;51.974;4.612;2023-02-14T06:52:07;9.27;;;3.38;;
69321;SDS011;67799;51.974;4.612;2023-02-14T06:54:33;5.45;;;3.90;;
69321;SDS011;67799;51.974;4.612;2023-02-14T06:56:59;5.93;;;4.20;;
69321;SDS011;67799;51.974;4.612;2023-02-14T06:59:25;6.13;;;4.82;;
69321;SDS011;67799;51.974;4.612;2023-02-14T07:01:51;9.07;;;4.57;;
69321;SDS011;67799;51.974;4.612;2023-02-14T07:04:16;9.13;;;4.13;;
69321;SDS011;67799;51.974;4.612;2023-02-14T07:06:44;7.82;;;4.05;;
69321;SDS011;67799;51.974;4.612;2023-02-14T07:09:10;4.88;;;3.92;;
69321;SDS011;67799;51.974;4.612;2023-02-14T07:11:36;9.17;;;4.40;;
69321;SDS011;67799;51.974;4.612;2023-02-14T07:14:02;4.82;;;3.42;;
69321;SDS011;67799;51.974;4.612;2023-02-14T07:16:28;7.43;;;4.65;;
69321;SDS011;67799;51.974;4.612;2023-02-14T07:18:53;7.73;;;4.00;;
69321;SDS011;67799;51.974;4.612;2023-02-14T07:21:19;6.85;;;4.43;;
69321;SDS011;67799;51.974;4.612;2023-02-14T07:23:45;8.30;;;4.10;;
69321;SDS011;67799;51.974;4.612;2023-02-14T07:26:14;7.68;;;4.28;;
69321;SDS011;67799;51.974;4.612;2023-02-14T07:28:43;7.90;;;3.78;;
69321;SDS011;67799;51.974;4.612;2023-02-14T07:31:10;6.70;;;4.50;;
69321;SDS011;67799;51.974;4.612;2023-02-14T07:33:36;6.63;;;3.90;;
69321;SDS011;67799;51.974;4.612;2023-02-14T07:36:06;5.68;;;4.20;;
69321;SDS011;67799;51.974;4.612;2023-02-14T07:38:33;5.38;;;4.88;;
69321;SDS011;67799;51.974;4.612;2023-02-14T07:40:59;5.87;;;4.63;;
69321;SDS011;67799;51.974;4.612;2023-02-14T07:43:25;5.70;;;4.55;;
69321;SDS011;67799;51.974;4.612;2023-02-14T07:45:51;8.05;;;5.75;;
69321;SDS011;67799;51.974;4.612;2023-02-14T07:48:17;5.63;;;4.23;;
69321;SDS011;67799;51.974;4.612;2023-02-14T07:50:43;5.72;;;4.03;;
69321;SDS011;67799;51.974;4.612;2023-02-14T07:53:09;5.28;;;4.63;;
69321;SDS011;67799;51.974;4.612;2023-02-14T07:55:35;5.93;;;4.33;;
69321;SDS011;67799;51.974;4.612;2023-02-14T07:58:01;4.82;;;3.28;;
69321;SDS011;67799;51.974;4.612;2023-02-14T08:00:28;2.60;;;2.25;;
69321;SDS011;67799;51.974;4.612;2023-02-14T08:02:53;5.27;;;3.63;;
69321;SDS011;67799;51.974;4.612;2023-02-14T08:05:20;4.43;;;3.65;;
69321;SDS011;67799;51.974;4.612;2023-02-14T08:07:46;5.93;;;3.78;;
69321;SDS011;67799;51.974;4.612;2023-02-14T08:10:13;5.00;;;3.97;;
69321;SDS011;67799;51.974;4.612;2023-02-14T08:12:39;6.18;;;3.58;;
69321;SDS011;67799;51.974;4.612;2023-02-14T08:15:27;7.00;;;3.97;;
69321;SDS011;67799;51.974;4.612;2023-02-14T08:18:13;4.55;;;3.20;;
69321;SDS011;67799;51.974;4.612;2023-02-14T08:20:39;6.80;;;3.90;;
69321;SDS011;67799;51.974;4.612;2023-02-14T08:23:05;5.22;;;3.65;;
69321;SDS011;67799;51.974;4.612;2023-02-14T08:25:31;4.65;;;3.10;;
69321;SDS011;67799;51.974;4.612;2023-02-14T08:27:57;5.97;;;3.33;;
69321;SDS011;67799;51.974;4.612;2023-02-14T08:30:25;4.13;;;3.38;;
69321;SDS011;67799;51.974;4.612;2023-02-14T08:32:52;4.82;;;3.70;;
69321;SDS011;67799;51.974;4.612;2023-02-14T08:35:18;6.40;;;4.00;;
69321;SDS011;67799;51.974;4.612;2023-02-14T08:37:44;5.35;;;3.72;;
69321;SDS011;67799;51.974;4.612;2023-02-14T08:40:09;4.57;;;3.10;;
69321;SDS011;67799;51.974;4.612;2023-02-14T08:42:36;5.83;;;3.63;;
69321;SDS011;67799;51.974;4.612;2023-02-14T08:45:02;5.05;;;3.40;;
69321;SDS011;67799;51.974;4.612;2023-02-14T08:47:29;4.55;;;3.38;;
69321;SDS011;67799;51.974;4.612;2023-02-14T08:50:09;18.48;;;6.70;;
69321;SDS011;67799;51.974;4.612;2023-02-14T08:52:38;10.17;;;5.30;;
69321;SDS011;67799;51.974;4.612;2023-02-14T08:55:05;8.82;;;4.05;;
69321;SDS011;67799;51.974;4.612;2023-02-14T08:57:31;6.22;;;4.35;;
69321;SDS011;67799;51.974;4.612;2023-02-14T08:59:57;10.40;;;5.20;;
69321;SDS011;67799;51.974;4.612;2023-02-14T09:02:23;11.32;;;5.70;;
69321;SDS011;67799;51.974;4.612;2023-02-14T09:04:49;7.25;;;4.50;;
69321;SDS011;67799;51.974;4.612;2023-02-14T09:07:15;8.90;;;4.13;;
69321;SDS011;67799;51.974;4.612;2023-02-14T09:09:41;12.93;;;5.75;;
69321;SDS011;67799;51.974;4.612;2023-02-14T09:12:07;11.38;;;4.22;;
69321;SDS011;67799;51.974;4.612;2023-02-14T09:14:35;5.60;;;4.30;;
69321;SDS011;67799;51.974;4.612;2023-02-14T09:17:01;7.32;;;4.60;;
69321;SDS011;67799;51.974;4.612;2023-02-14T09:19:33;12.90;;;7.30;;
69321;SDS011;67799;51.974;4.612;2023-02-14T09:22:00;10.32;;;6.05;;
69321;SDS011;67799;51.974;4.612;2023-02-14T09:24:28;12.20;;;7.50;;
69321;SDS011;67799;51.974;4.612;2023-02-14T09:26:55;10.35;;;4.00;;
69321;SDS011;67799;51.974;4.612;2023-02-14T09:29:24;8.23;;;5.07;;
69321;SDS011;67799;51.974;4.612;2023-02-14T09:31:51;10.83;;;5.67;;
69321;SDS011;67799;51.974;4.612;2023-02-14T09:34:21;5.53;;;3.40;;
69321;SDS011;67799;51.974;4.612;2023-02-14T09:36:47;6.90;;;4.30;;
69321;SDS011;67799;51.974;4.612;2023-02-14T09:39:14;6.17;;;4.17;;
69321;SDS011;67799;51.974;4.612;2023-02-14T09:44:36;7.47;;;4.85;;
69321;SDS011;67799;51.974;4.612;2023-02-14T09:47:10;7.93;;;4.55;;
69321;SDS011;67799;51.974;4.612;2023-02-14T09:49:59;9.23;;;4.07;;
69321;SDS011;67799;51.974;4.612;2023-02-14T09:52:27;9.20;;;5.13;;
69321;SDS011;67799;51.974;4.612;2023-02-14T09:54:57;8.30;;;4.55;;
69321;SDS011;67799;51.974;4.612;2023-02-14T10:00:16;14.93;;;5.72;;
69321;SDS011;67799;51.974;4.612;2023-02-14T10:05:20;5.60;;;4.10;;
69321;SDS011;67799;51.974;4.612;2023-02-14T10:07:57;11.32;;;6.10;;
69321;SDS011;67799;51.974;4.612;2023-02-14T10:10:32;12.32;;;5.45;;
69321;SDS011;67799;51.974;4.612;2023-02-14T10:16:27;8.30;;;4.70;;
69321;SDS011;67799;51.974;4.612;2023-02-14T10:21:42;8.18;;;4.35;;
69321;SDS011;67799;51.974;4.612;2023-02-14T10:27:36;8.27;;;5.20;;
69321;SDS011;67799;51.974;4.612;2023-02-14T10:30:14;13.10;;;6.53;;
69321;SDS011;67799;51.974;4.612;2023-02-14T10:35:40;11.18;;;5.45;;
69321;SDS011;67799;51.974;4.612;2023-02-14T10:38:11;8.13;;;5.00;;
69321;SDS011;67799;51.974;4.612;2023-02-14T10:45:50;16.25;;;7.15;;
69321;SDS011;67799;51.974;4.612;2023-02-14T10:54:35;13.98;;;7.50;;
69321;SDS011;67799;51.974;4.612;2023-02-14T11:00:00;10.47;;;5.33;;
69321;SDS011;67799;51.974;4.612;2023-02-14T11:02:32;11.35;;;5.35;;
69321;SDS011;67799;51.974;4.612;2023-02-14T11:05:02;12.48;;;6.15;;
69321;SDS011;67799;51.974;4.612;2023-02-14T11:07:29;22.03;;;9.57;;
69321;SDS011;67799;51.974;4.612;2023-02-14T11:09:55;9.90;;;5.50;;
69321;SDS011;67799;51.974;4.612;2023-02-14T11:12:32;10.15;;;5.55;;
69321;SDS011;67799;51.974;4.612;2023-02-14T11:17:49;10.20;;;4.65;;
69321;SDS011;67799;51.974;4.612;2023-02-14T11:20:31;7.93;;;4.95;;
69321;SDS011;67799;51.974;4.612;2023-02-14T11:22:57;9.67;;;5.10;;
69321;SDS011;67799;51.974;4.612;2023-02-14T11:25:24;8.70;;;5.13;;
69321;SDS011;67799;51.974;4.612;2023-02-14T11:28:04;17.75;;;8.07;;
69321;SDS011;67799;51.974;4.612;2023-02-14T11:30:34;8.87;;;5.57;;
69321;SDS011;67799;51.974;4.612;2023-02-14T11:33:03;14.88;;;7.18;;
69321;SDS011;67799;51.974;4.612;2023-02-14T11:35:31;16.70;;;8.05;;
69321;SDS011;67799;51.974;4.612;2023-02-14T11:38:02;10.05;;;5.97;;
69321;SDS011;67799;51.974;4.612;2023-02-14T11:40:32;9.57;;;6.00;;
69321;SDS011;67799;51.974;4.612;2023-02-14T11:45:35;9.85;;;5.22;;
69321;SDS011;67799;51.974;4.612;2023-02-14T11:48:07;10.77;;;6.27;;
69321;SDS011;67799;51.974;4.612;2023-02-14T11:53:21;11.55;;;5.65;;
69321;SDS011;67799;51.974;4.612;2023-02-14T11:55:50;17.83;;;8.57;;
69321;SDS011;67799;51.974;4.612;2023-02-14T12:01:05;12.20;;;6.00;;
69321;SDS011;67799;51.974;4.612;2023-02-14T12:03:35;15.20;;;8.00;;
69321;SDS011;67799;51.974;4.612;2023-02-14T12:06:08;9.27;;;5.57;;
69321;SDS011;67799;51.974;4.612;2023-02-14T12:08:34;10.30;;;5.75;;
69321;SDS011;67799;51.974;4.612;2023-02-14T12:11:59;18.55;;;8.82;;
69321;SDS011;67799;51.974;4.612;2023-02-14T12:14:33;10.43;;;5.82;;
69321;SDS011;67799;51.974;4.612;2023-02-14T12:17:08;10.50;;;5.77;;
69321;SDS011;67799;51.974;4.612;2023-02-14T12:20:14;15.85;;;9.15;;
69321;SDS011;67799;51.974;4.612;2023-02-14T12:22:57;19.52;;;10.75;;
69321;SDS011;67799;51.974;4.612;2023-02-14T12:25:43;10.73;;;7.45;;
69321;SDS011;67799;51.974;4.612;2023-02-14T12:28:18;10.90;;;5.50;;
69321;SDS011;67799;51.974;4.612;2023-02-14T12:30:50;9.50;;;5.57;;
69321;SDS011;67799;51.974;4.612;2023-02-14T12:33:19;13.05;;;7.28;;
69321;SDS011;67799;51.974;4.612;2023-02-14T12:36:02;10.47;;;5.50;;
69321;SDS011;67799;51.974;4.612;2023-02-14T12:41:27;20.95;;;9.80;;
69321;SDS011;67799;51.974;4.612;2023-02-14T12:47:00;16.83;;;7.80;;
69321;SDS011;67799;51.974;4.612;2023-02-14T12:57:48;16.45;;;7.07;;
69321;SDS011;67799;51.974;4.612;2023-02-14T13:18:52;12.70;;;7.77;;
69321;SDS011;67799;51.974;4.612;2023-02-14T13:21:25;13.50;;;6.45;;
69321;SDS011;67799;51.974;4.612;2023-02-14T13:23:56;8.85;;;5.40;;
69321;SDS011;67799;51.974;4.612;2023-02-14T13:26:41;17.43;;;9.30;;
69321;SDS011;67799;51.974;4.612;2023-02-14T13:29:09;16.80;;;8.82;;
69321;SDS011;67799;51.974;4.612;2023-02-14T13:31:38;12.63;;;6.82;;
69321;SDS011;67799;51.974;4.612;2023-02-14T13:34:07;18.98;;;10.40;;
69321;SDS011;67799;51.974;4.612;2023-02-14T13:36:38;11.30;;;7.10;;
69321;SDS011;67799;51.974;4.612;2023-02-14T13:39:04;12.80;;;6.70;;
69321;SDS011;67799;51.974;4.612;2023-02-14T13:41:32;17.00;;;8.95;;
69321;SDS011;67799;51.974;4.612;2023-02-14T13:43:58;16.20;;;8.67;;
69321;SDS011;67799;51.974;4.612;2023-02-14T13:48:59;19.27;;;8.18;;
69321;SDS011;67799;51.974;4.612;2023-02-14T13:51:47;17.17;;;8.03;;
69321;SDS011;67799;51.974;4.612;2023-02-14T13:54:27;14.98;;;7.93;;
69321;SDS011;67799;51.974;4.612;2023-02-14T14:02:50;14.27;;;7.10;;
69321;SDS011;67799;51.974;4.612;2023-02-14T14:05:43;12.90;;;6.45;;
69321;SDS011;67799;51.974;4.612;2023-02-14T14:10:47;6.93;;;4.63;;
69321;SDS011;67799;51.974;4.612;2023-02-14T14:16:58;8.50;;;4.80;;
69321;SDS011;67799;51.974;4.612;2023-02-14T14:22:03;11.05;;;5.50;;
69321;SDS011;67799;51.974;4.612;2023-02-14T14:24:34;10.05;;;5.65;;
69321;SDS011;67799;51.974;4.612;2023-02-14T14:27:03;9.57;;;6.03;;
69321;SDS011;67799;51.974;4.612;2023-02-14T14:32:17;9.65;;;5.20;;
69321;SDS011;67799;51.974;4.612;2023-02-14T14:35:17;18.92;;;6.45;;
69321;SDS011;67799;51.974;4.612;2023-02-14T14:37:46;10.70;;;6.10;;
69321;SDS011;67799;51.974;4.612;2023-02-14T14:40:23;9.43;;;5.18;;
69321;SDS011;67799;51.974;4.612;2023-02-14T14:43:10;10.50;;;6.18;;
69321;SDS011;67799;51.974;4.612;2023-02-14T14:45:38;13.00;;;6.33;;
69321;SDS011;67799;51.974;4.612;2023-02-14T14:48:09;8.10;;;4.53;;
69321;SDS011;67799;51.974;4.612;2023-02-14T14:50:38;11.00;;;5.65;;
69321;SDS011;67799;51.974;4.612;2023-02-14T14:53:20;8.53;;;4.63;;
69321;SDS011;67799;51.974;4.612;2023-02-14T14:55:49;11.05;;;5.53;;
69321;SDS011;67799;51.974;4.612;2023-02-14T14:58:33;11.18;;;5.80;;
69321;SDS011;67799;51.974;4.612;2023-02-14T15:01:04;11.80;;;6.57;;
69321;SDS011;67799;51.974;4.612;2023-02-14T15:03:32;8.23;;;5.10;;
69321;SDS011;67799;51.974;4.612;2023-02-14T15:06:18;7.35;;;4.25;;
69321;SDS011;67799;51.974;4.612;2023-02-14T15:08:45;10.02;;;5.10;;
69321;SDS011;67799;51.974;4.612;2023-02-14T15:14:05;11.93;;;6.20;;
69321;SDS011;67799;51.974;4.612;2023-02-14T15:16:40;9.85;;;5.45;;
69321;SDS011;67799;51.974;4.612;2023-02-14T15:19:14;7.50;;;4.07;;
69321;SDS011;67799;51.974;4.612;2023-02-14T15:21:41;8.13;;;4.38;;
69321;SDS011;67799;51.974;4.612;2023-02-14T15:24:15;7.45;;;4.80;;
69321;SDS011;67799;51.974;4.612;2023-02-14T15:26:43;9.38;;;5.35;;
69321;SDS011;67799;51.974;4.612;2023-02-14T15:29:19;9.87;;;5.23;;
69321;SDS011;67799;51.974;4.612;2023-02-14T15:31:47;8.45;;;5.03;;
69321;SDS011;67799;51.974;4.612;2023-02-14T15:34:14;7.40;;;4.63;;
69321;SDS011;67799;51.974;4.612;2023-02-14T15:36:41;11.07;;;4.47;;
69321;SDS011;67799;51.974;4.612;2023-02-14T15:39:13;8.20;;;4.93;;
69321;SDS011;67799;51.974;4.612;2023-02-14T15:41:42;7.72;;;5.10;;
69321;SDS011;67799;51.974;4.612;2023-02-14T15:44:16;10.37;;;5.47;;
69321;SDS011;67799;51.974;4.612;2023-02-14T15:46:46;7.65;;;4.50;;
69321;SDS011;67799;51.974;4.612;2023-02-14T15:49:18;9.77;;;5.40;;
69321;SDS011;67799;51.974;4.612;2023-02-14T15:51:46;6.93;;;4.88;;
69321;SDS011;67799;51.974;4.612;2023-02-14T15:57:23;11.93;;;5.15;;
69321;SDS011;67799;51.974;4.612;2023-02-14T15:59:51;5.10;;;4.30;;
69321;SDS011;67799;51.974;4.612;2023-02-14T16:05:03;8.40;;;5.30;;
69321;SDS011;67799;51.974;4.612;2023-02-14T16:07:31;8.00;;;4.95;;
69321;SDS011;67799;51.974;4.612;2023-02-14T16:10:18;8.67;;;5.23;;
69321;SDS011;67799;51.974;4.612;2023-02-14T16:12:58;7.57;;;4.95;;
69321;SDS011;67799;51.974;4.612;2023-02-14T16:15:28;12.10;;;5.57;;
69321;SDS011;67799;51.974;4.612;2023-02-14T16:17:56;10.07;;;5.45;;
69321;SDS011;67799;51.974;4.612;2023-02-14T16:20:37;5.27;;;4.30;;
69321;SDS011;67799;51.974;4.612;2023-02-14T16:23:26;7.38;;;5.05;;
69321;SDS011;67799;51.974;4.612;2023-02-14T16:25:53;8.15;;;4.82;;
69321;SDS011;67799;51.974;4.612;2023-02-14T16:28:26;8.30;;;4.77;;
69321;SDS011;67799;51.974;4.612;2023-02-14T16:30:55;10.25;;;5.13;;
69321;SDS011;67799;51.974;4.612;2023-02-14T16:33:24;9.43;;;5.07;;
69321;SDS011;67799;51.974;4.612;2023-02-14T16:35:52;12.00;;;6.30;;
69321;SDS011;67799;51.974;4.612;2023-02-14T16:38:19;9.13;;;5.20;;
69321;SDS011;67799;51.974;4.612;2023-02-14T16:40:49;10.18;;;6.13;;
69321;SDS011;67799;51.974;4.612;2023-02-14T16:43:19;12.57;;;6.30;;
69321;SDS011;67799;51.974;4.612;2023-02-14T16:45:45;13.83;;;6.13;;
69321;SDS011;67799;51.974;4.612;2023-02-14T16:48:12;9.63;;;6.03;;
69321;SDS011;67799;51.974;4.612;2023-02-14T16:50:40;10.85;;;5.80;;
69321;SDS011;67799;51.974;4.612;2023-02-14T16:53:10;10.87;;;5.63;;
69321;SDS011;67799;51.974;4.612;2023-02-14T16:55:44;11.20;;;6.28;;
69321;SDS011;67799;51.974;4.612;2023-02-14T16:58:10;11.10;;;6.03;;
69321;SDS011;67799;51.974;4.612;2023-02-14T17:00:38;19.47;;;7.37;;
69321;SDS011;67799;51.974;4.612;2023-02-14T17:03:04;8.13;;;5.13;;
69321;SDS011;67799;51.974;4.612;2023-02-14T17:05:35;8.68;;;5.88;;
69321;SDS011;67799;51.974;4.612;2023-02-14T17:08:02;11.45;;;6.28;;
69321;SDS011;67799;51.974;4.612;2023-02-14T17:10:30;9.40;;;5.60;;
69321;SDS011;67799;51.974;4.612;2023-02-14T17:12:57;11.65;;;6.50;;
69321;SDS011;67799;51.974;4.612;2023-02-14T17:15:25;12.32;;;6.60;;
69321;SDS011;67799;51.974;4.612;2023-02-14T17:17:54;10.50;;;5.97;;
69321;SDS011;67799;51.974;4.612;2023-02-14T17:20:22;15.35;;;7.15;;
69321;SDS011;67799;51.974;4.612;2023-02-14T17:22:48;11.95;;;6.93;;